createdAt,value
2022-10-22T00:02:12.572Z,61.47
2022-10-22T00:04:41.847Z,61.67
2022-10-22T00:07:11.103Z,61.82
2022-10-22T00:09:40.269Z,61.98
2022-10-22T00:12:09.813Z,62.16
2022-10-22T00:14:39.651Z,62.21
2022-10-22T00:17:11.570Z,62.35
2022-10-22T00:19:42.270Z,62.36
2022-10-22T00:22:13.832Z,62.40
2022-10-22T00:24:43.538Z,62.49
2022-10-22T00:27:14.435Z,62.60
2022-10-22T00:29:43.957Z,62.44
2022-10-22T00:32:13.587Z,62.38
2022-10-22T00:34:43.252Z,62.57
2022-10-22T00:37:12.706Z,62.67
2022-10-22T00:39:42.393Z,62.83
2022-10-22T00:42:27.657Z,62.92
2022-10-22T00:45:12.333Z,63.04
2022-10-22T00:48:26.129Z,63.08
2022-10-22T00:51:04.400Z,63.14
2022-10-22T00:53:57.129Z,63.24
2022-10-22T00:56:26.983Z,63.38
2022-10-22T00:59:01.456Z,63.40
2022-10-22T01:01:33.617Z,63.46
2022-10-22T01:04:03.341Z,63.59
2022-10-22T01:06:35.566Z,63.65
2022-10-22T01:09:43.412Z,63.80
2022-10-22T01:12:26.262Z,64.02
2022-10-22T01:15:19.880Z,64.26
2022-10-22T01:18:20.060Z,64.39
2022-10-22T01:21:16.738Z,64.60
2022-10-22T01:24:10.973Z,64.64
2022-10-22T01:27:01.396Z,64.74
2022-10-22T01:29:50.303Z,64.92
2022-10-22T01:32:27.554Z,65.04
2022-10-22T01:35:05.866Z,65.10
2022-10-22T01:37:43.461Z,65.20
2022-10-22T01:40:15.686Z,65.26
2022-10-22T01:42:55.026Z,65.30
2022-10-22T01:45:25.185Z,65.20
2022-10-22T01:48:15.295Z,65.27
2022-10-22T01:51:04.967Z,65.50
2022-10-22T01:54:03.594Z,65.63
2022-10-22T01:56:47.663Z,65.74
2022-10-22T01:59:55.053Z,65.82
2022-10-22T02:02:38.765Z,66.05
2022-10-22T02:05:46.568Z,66.25
2022-10-22T02:08:23.673Z,66.27
2022-10-22T02:10:54.183Z,66.46
2022-10-22T02:13:50.866Z,66.56
2022-10-22T02:16:39.823Z,66.69
2022-10-22T02:19:31.218Z,66.88
2022-10-22T02:22:00.959Z,66.87
2022-10-22T02:24:30.865Z,66.74
2022-10-22T02:27:25.748Z,66.69
2022-10-22T02:33:22.308Z,66.75
2022-10-22T02:35:55.453Z,66.72
2022-10-22T02:38:28.517Z,66.84
2022-10-22T02:40:58.073Z,66.89
2022-10-22T02:43:30.050Z,67.01
2022-10-22T02:45:59.403Z,67.34
2022-10-22T02:48:28.483Z,67.60
2022-10-22T02:50:58.465Z,67.68
2022-10-22T02:53:27.509Z,67.96
2022-10-22T02:55:56.840Z,68.19
2022-10-22T02:58:26.406Z,68.41
2022-10-22T03:00:55.672Z,68.67
2022-10-22T03:03:24.796Z,68.64
2022-10-22T03:05:53.843Z,68.62
2022-10-22T03:08:23.786Z,68.88
2022-10-22T03:10:52.714Z,69.16
2022-10-22T03:13:21.806Z,69.26
2022-10-22T03:15:52.289Z,69.31
2022-10-22T03:18:22.980Z,69.42
2022-10-22T03:20:51.853Z,69.72
2022-10-22T03:23:24.579Z,69.98
2022-10-22T03:25:53.638Z,70.19
2022-10-22T03:28:22.802Z,70.61
2022-10-22T03:30:51.878Z,70.83
2022-10-22T03:33:20.697Z,70.82
2022-10-22T03:35:50.495Z,71.00
2022-10-22T03:38:19.804Z,71.31
2022-10-22T03:40:49.814Z,71.38
2022-10-22T03:43:19.520Z,71.60
2022-10-22T03:45:48.786Z,71.61
2022-10-22T03:48:17.856Z,71.57
2022-10-22T03:50:46.892Z,71.71
2022-10-22T03:53:16.068Z,71.78
2022-10-22T03:55:45.118Z,71.93
2022-10-22T03:58:14.236Z,72.05
2022-10-22T04:00:43.605Z,72.21
2022-10-22T04:03:12.608Z,72.40
2022-10-22T04:05:41.584Z,72.61
2022-10-22T04:08:10.791Z,72.71
2022-10-22T04:10:39.898Z,73.02
2022-10-22T04:13:09.064Z,73.16
2022-10-22T04:15:38.285Z,73.30
2022-10-22T04:18:07.484Z,73.48
2022-10-22T04:20:37.080Z,73.56
2022-10-22T04:23:06.257Z,73.87
2022-10-22T04:25:35.213Z,73.79
2022-10-22T04:28:04.077Z,74.16
2022-10-22T04:30:33.283Z,74.52
2022-10-22T04:33:03.256Z,74.70
2022-10-22T04:35:32.354Z,74.78
2022-10-22T04:38:01.425Z,74.88
2022-10-22T04:40:30.503Z,75.07
2022-10-22T04:42:59.508Z,75.21
2022-10-22T04:45:28.901Z,75.41
2022-10-22T04:47:58.251Z,75.51
2022-10-22T04:50:27.642Z,75.66
2022-10-22T04:52:56.945Z,75.70
2022-10-22T04:55:26.093Z,75.95
2022-10-22T04:57:55.164Z,76.14
2022-10-22T05:00:24.593Z,76.18
2022-10-22T05:02:54.055Z,76.29
2022-10-22T05:05:23.200Z,76.34
2022-10-22T05:07:53.779Z,76.47
2022-10-22T05:10:22.922Z,76.28
2022-10-22T05:12:52.189Z,76.09
2022-10-22T05:15:21.369Z,76.14
2022-10-22T05:17:50.411Z,76.39
2022-10-22T05:20:19.551Z,76.50
2022-10-22T05:22:48.756Z,76.52
2022-10-22T05:25:17.850Z,76.54
2022-10-22T05:27:51.826Z,76.48
2022-10-22T05:30:20.690Z,76.63
2022-10-22T05:32:50.243Z,76.93
2022-10-22T05:35:19.324Z,77.02
2022-10-22T05:37:48.439Z,76.87
2022-10-22T05:40:30.169Z,76.78
2022-10-22T05:43:01.456Z,76.66
2022-10-22T05:45:30.940Z,76.75
2022-10-22T05:47:59.888Z,77.13
2022-10-22T05:50:28.960Z,77.19
2022-10-22T05:52:59.012Z,76.98
2022-10-22T05:55:28.109Z,77.17
2022-10-22T05:57:57.078Z,77.34
2022-10-22T06:00:26.335Z,77.30
2022-10-22T06:02:55.664Z,77.48
2022-10-22T06:05:24.746Z,77.71
2022-10-22T06:07:54.005Z,77.72
2022-10-22T06:10:24.567Z,77.75
2022-10-22T06:12:53.713Z,77.74
2022-10-22T06:15:23.450Z,77.59
2022-10-22T06:17:52.493Z,77.66
2022-10-22T06:20:21.620Z,77.53
2022-10-22T06:22:50.783Z,77.50
2022-10-22T06:25:19.907Z,77.57
2022-10-22T06:27:55.507Z,77.68
2022-10-22T06:30:24.884Z,77.52
2022-10-22T06:32:53.776Z,77.46
2022-10-22T06:35:22.880Z,77.80
2022-10-22T06:37:52.197Z,77.97
2022-10-22T06:40:21.520Z,78.04
2022-10-22T06:42:50.452Z,78.03
2022-10-22T06:45:19.754Z,78.06
2022-10-22T06:47:48.749Z,78.28
2022-10-22T06:50:19.006Z,78.42
2022-10-22T06:52:48.103Z,78.68
2022-10-22T06:55:17.390Z,78.88
2022-10-22T06:57:46.491Z,79.12
2022-10-22T07:00:16.672Z,79.37
2022-10-22T07:02:46.016Z,79.37
2022-10-22T07:05:15.146Z,79.64
2022-10-22T07:07:44.039Z,79.70
2022-10-22T07:10:13.428Z,79.92
2022-10-22T07:12:43.546Z,80.40
2022-10-22T07:15:13.296Z,80.37
2022-10-22T07:17:42.348Z,80.37
2022-10-22T07:20:13.752Z,80.51
2022-10-22T07:22:43.210Z,80.54
2022-10-22T07:25:13.483Z,80.53
2022-10-22T07:27:42.804Z,80.54
2022-10-22T07:30:12.388Z,80.37
2022-10-22T07:32:41.805Z,80.42
2022-10-22T07:35:11.546Z,80.32
2022-10-22T07:37:40.880Z,80.04
2022-10-22T07:40:11.502Z,80.11
2022-10-22T07:42:40.508Z,79.67
2022-10-22T07:45:10.242Z,79.64
2022-10-22T07:47:39.745Z,79.60
2022-10-22T07:50:09.490Z,79.66
2022-10-22T07:52:38.933Z,79.57
2022-10-22T07:55:08.738Z,79.71
2022-10-22T07:57:40.582Z,79.87
2022-10-22T08:00:11.417Z,79.68
2022-10-22T08:02:40.663Z,79.47
2022-10-22T08:05:10.657Z,79.34
2022-10-22T08:07:39.732Z,79.23
2022-10-22T08:10:10.646Z,79.34
2022-10-22T08:12:41.129Z,79.44
2022-10-22T08:15:11.344Z,79.44
2022-10-22T08:17:40.939Z,79.37
2022-10-22T08:20:13.658Z,79.45
2022-10-22T08:22:42.706Z,79.29
2022-10-22T08:25:12.581Z,79.37
2022-10-22T08:27:41.877Z,79.43
2022-10-22T08:30:12.224Z,79.45
2022-10-22T08:32:41.416Z,79.36
2022-10-22T08:35:14.069Z,79.43
2022-10-22T08:37:45.836Z,79.50
2022-10-22T08:40:34.260Z,79.62
2022-10-22T08:43:44.098Z,79.69
2022-10-22T08:46:12.962Z,79.78
2022-10-22T08:48:55.290Z,79.68
2022-10-22T08:51:33.100Z,79.73
2022-10-22T08:54:30.471Z,79.16
2022-10-22T08:57:18.618Z,79.09
2022-10-22T09:00:05.648Z,79.62
2022-10-22T09:03:11.326Z,80.13
2022-10-22T09:06:12.201Z,80.45
2022-10-22T09:08:43.815Z,80.37
2022-10-22T09:11:19.130Z,80.32
2022-10-22T09:13:49.701Z,80.48
2022-10-22T09:16:39.471Z,80.42
2022-10-22T09:19:28.876Z,80.55
2022-10-22T09:22:23.560Z,80.63
2022-10-22T09:25:11.133Z,80.32
2022-10-22T09:27:40.601Z,80.35
2022-10-22T09:30:22.472Z,80.17
2022-10-22T09:33:07.485Z,80.02
2022-10-22T09:35:54.278Z,80.25
2022-10-22T09:38:30.482Z,80.31
2022-10-22T09:41:04.865Z,80.25
2022-10-22T09:43:36.084Z,80.39
2022-10-22T09:46:09.508Z,80.52
2022-10-22T09:48:44.262Z,80.57
2022-10-22T09:51:24.387Z,80.55
2022-10-22T09:54:03.627Z,80.50
2022-10-22T09:56:43.142Z,80.50
2022-10-22T09:59:32.214Z,80.55
2022-10-22T10:02:19.536Z,80.42
2022-10-22T10:04:58.664Z,80.33
2022-10-22T10:07:33.240Z,80.45
2022-10-22T10:10:02.647Z,80.50
2022-10-22T10:13:04.874Z,80.49
2022-10-22T10:15:58.458Z,80.47
2022-10-22T10:18:54.567Z,80.57
2022-10-22T10:21:49.584Z,80.70
2022-10-22T10:24:58.105Z,80.70
2022-10-22T10:27:47.932Z,80.66
2022-10-22T10:30:25.153Z,80.70
2022-10-22T10:33:38.428Z,80.64
2022-10-22T10:36:29.839Z,80.61
2022-10-22T10:39:09.021Z,80.41
2022-10-22T10:41:52.267Z,80.48
2022-10-22T10:44:50.628Z,80.61
2022-10-22T10:47:57.790Z,80.61
2022-10-22T10:51:01.682Z,80.64
2022-10-22T10:54:07.015Z,80.75
2022-10-22T10:57:13.840Z,80.69
2022-10-22T11:00:18.508Z,80.79
2022-10-22T11:03:08.447Z,80.64
2022-10-22T11:05:49.987Z,80.66
2022-10-22T11:08:47.616Z,80.71
2022-10-22T11:11:46.740Z,80.92
2022-10-22T11:14:32.460Z,80.79
2022-10-22T11:17:16.499Z,80.88
2022-10-22T11:19:59.924Z,81.08
2022-10-22T11:23:00.286Z,81.22
2022-10-22T11:25:41.481Z,81.36
2022-10-22T11:28:31.577Z,81.26
2022-10-22T11:31:11.753Z,81.21
2022-10-22T11:34:32.683Z,81.27
2022-10-22T11:37:05.892Z,81.16
2022-10-22T11:39:55.226Z,81.16
2022-10-22T11:42:36.689Z,80.95
2022-10-22T11:45:31.634Z,81.08
2022-10-22T11:48:12.466Z,80.97
2022-10-22T11:51:00.984Z,80.89
2022-10-22T11:53:37.576Z,80.94
2022-10-22T11:56:10.934Z,80.97
2022-10-22T11:58:52.188Z,80.98
2022-10-22T12:01:30.012Z,81.29
2022-10-22T12:04:18.401Z,81.36
2022-10-22T12:07:05.699Z,81.42
2022-10-22T12:09:41.713Z,81.54
2022-10-22T12:12:17.912Z,81.71
2022-10-22T12:15:00.399Z,81.51
2022-10-22T12:17:31.102Z,81.58
2022-10-22T12:20:14.407Z,81.44
2022-10-22T12:22:44.099Z,81.43
2022-10-22T12:25:30.055Z,81.56
2022-10-22T12:28:02.733Z,81.60
2022-10-22T12:30:36.486Z,81.42
2022-10-22T12:33:10.108Z,81.40
2022-10-22T12:35:48.683Z,81.53
2022-10-22T12:38:24.709Z,81.44
2022-10-22T12:40:58.474Z,81.33
2022-10-22T12:43:32.270Z,81.24
2022-10-22T12:46:02.234Z,81.32
2022-10-22T12:48:37.725Z,81.53
2022-10-22T12:51:10.874Z,81.67
2022-10-22T12:53:50.719Z,81.62
2022-10-22T12:56:33.292Z,81.60
2022-10-22T12:59:09.538Z,81.66
2022-10-22T13:01:47.329Z,81.63
2022-10-22T13:04:21.970Z,81.37
2022-10-22T13:07:23.244Z,81.44
2022-10-22T13:09:58.110Z,81.52
2022-10-22T13:12:35.787Z,81.55
2022-10-22T13:15:41.460Z,81.63
2022-10-22T13:18:26.257Z,81.65
2022-10-22T13:21:04.257Z,81.57
2022-10-22T13:23:35.960Z,81.67
2022-10-22T13:26:20.054Z,81.63
2022-10-22T13:28:56.982Z,81.45
2022-10-22T13:31:34.846Z,81.36
2022-10-22T13:34:12.896Z,81.40
2022-10-22T13:36:43.070Z,81.44
2022-10-22T13:39:25.311Z,81.50
2022-10-22T13:41:54.549Z,81.50
2022-10-22T13:44:23.517Z,81.53
2022-10-22T13:46:53.391Z,81.62
2022-10-22T13:49:26.655Z,81.47
2022-10-22T13:51:56.723Z,81.47
2022-10-22T13:54:27.100Z,81.57
2022-10-22T13:56:56.322Z,81.57
2022-10-22T13:59:25.411Z,81.75
2022-10-22T14:01:55.881Z,81.77
2022-10-22T14:04:24.948Z,81.82
2022-10-22T14:06:58.817Z,81.72
2022-10-22T14:09:30.439Z,81.55
2022-10-22T14:11:59.822Z,81.59
2022-10-22T14:14:28.869Z,81.74
2022-10-22T14:16:58.033Z,81.76
2022-10-22T14:19:27.107Z,81.80
2022-10-22T14:21:56.268Z,81.94
2022-10-22T14:24:25.313Z,82.08
2022-10-22T14:26:54.293Z,81.98
2022-10-22T14:29:23.367Z,81.94
2022-10-22T14:31:52.925Z,82.05
2022-10-22T14:34:22.831Z,82.01
2022-10-22T14:36:51.821Z,81.92
2022-10-22T14:39:22.544Z,81.97
2022-10-22T14:41:51.665Z,81.91
2022-10-22T14:44:20.846Z,81.88
2022-10-22T14:46:49.840Z,81.82
2022-10-22T14:49:18.930Z,81.71
2022-10-22T14:51:47.930Z,81.71
2022-10-22T14:54:17.154Z,81.61
2022-10-22T14:56:47.515Z,81.79
2022-10-22T14:59:16.623Z,81.89
2022-10-22T15:01:46.025Z,81.94
2022-10-22T15:04:15.044Z,82.00
2022-10-22T15:06:44.202Z,81.95
2022-10-22T15:09:13.507Z,81.98
2022-10-22T15:11:43.841Z,81.76
2022-10-22T15:14:12.812Z,81.97
2022-10-22T15:16:41.703Z,82.10
2022-10-22T15:19:12.203Z,82.02
2022-10-22T15:24:11.596Z,81.99
2022-10-22T15:26:43.002Z,81.85
2022-10-22T15:29:12.102Z,81.78
2022-10-22T15:31:58.851Z,81.80
2022-10-22T15:34:34.575Z,81.72
2022-10-22T15:37:07.499Z,81.86
2022-10-22T15:39:36.910Z,81.68
2022-10-22T15:42:06.043Z,81.57
2022-10-22T15:44:35.284Z,81.70
2022-10-22T15:47:08.320Z,81.72
2022-10-22T15:49:42.698Z,81.72
2022-10-22T15:52:12.138Z,81.74
2022-10-22T15:54:44.971Z,81.86
2022-10-22T15:57:14.200Z,81.62
2022-10-22T15:59:43.325Z,81.44
2022-10-22T16:02:13.922Z,81.20
2022-10-22T16:04:43.155Z,81.15
2022-10-22T16:07:12.061Z,81.07
2022-10-22T16:09:41.025Z,81.47
2022-10-22T16:12:10.777Z,81.39
2022-10-22T16:14:41.156Z,81.18
2022-10-22T16:17:10.301Z,81.17
2022-10-22T16:19:39.181Z,81.08
2022-10-22T16:24:53.357Z,81.14
2022-10-22T16:27:22.407Z,80.96
2022-10-22T16:29:51.586Z,80.95
2022-10-22T16:32:20.601Z,80.81
2022-10-22T16:34:49.759Z,80.87
2022-10-22T16:37:18.930Z,80.60
2022-10-22T16:39:48.327Z,80.50
2022-10-22T16:42:17.422Z,80.53
2022-10-22T16:44:46.377Z,80.13
2022-10-22T16:47:15.412Z,80.13
2022-10-22T16:49:44.600Z,80.67
2022-10-22T16:52:13.720Z,80.36
2022-10-22T16:54:42.782Z,80.36
2022-10-22T16:57:13.403Z,80.56
2022-10-22T16:59:42.461Z,80.55
2022-10-22T17:02:14.147Z,80.62
2022-10-22T17:04:43.376Z,80.33
2022-10-22T17:07:12.209Z,80.24
2022-10-22T17:09:41.539Z,80.11
2022-10-22T17:12:10.529Z,79.91
2022-10-22T17:14:39.767Z,79.82
2022-10-22T17:17:08.733Z,79.77
2022-10-22T17:19:39.908Z,79.54
2022-10-22T17:22:09.277Z,79.53
2022-10-22T17:24:39.812Z,79.63
2022-10-22T17:27:08.904Z,79.69
2022-10-22T17:29:38.918Z,79.28
2022-10-22T17:32:07.974Z,79.26
2022-10-22T17:34:37.021Z,79.42
2022-10-22T17:37:06.015Z,79.39
2022-10-22T17:39:35.093Z,79.54
2022-10-22T17:42:04.040Z,79.34
2022-10-22T17:44:33.166Z,78.94
2022-10-22T17:47:02.770Z,78.88
2022-10-22T17:49:32.003Z,79.02
2022-10-22T18:04:21.490Z,77.48
2022-10-22T18:06:51.170Z,77.33
2022-10-22T18:09:21.221Z,77.70
2022-10-22T18:11:52.849Z,77.49
2022-10-22T18:14:24.478Z,77.31
2022-10-22T18:16:53.860Z,77.63
2022-10-22T18:19:25.599Z,77.58
2022-10-22T18:21:54.941Z,77.58
2022-10-22T18:24:24.308Z,77.54
2022-10-22T18:26:53.827Z,77.11
2022-10-22T18:29:23.101Z,77.13
2022-10-22T18:31:53.470Z,77.18
2022-10-22T18:34:23.908Z,76.98
2022-10-22T18:36:53.918Z,77.45
2022-10-22T18:39:23.316Z,77.58
2022-10-22T18:41:52.770Z,77.68
2022-10-22T18:44:22.391Z,77.57
2022-10-22T18:46:52.177Z,77.62
2022-10-22T18:49:21.694Z,77.74
2022-10-22T18:51:53.846Z,77.58
2022-10-22T18:54:24.741Z,77.58
2022-10-22T18:57:01.872Z,77.93
2022-10-22T18:59:32.300Z,77.89
2022-10-22T19:02:01.498Z,77.89
2022-10-22T19:04:38.127Z,78.09
2022-10-22T19:09:37.549Z,77.37
2022-10-22T19:12:07.767Z,77.31
2022-10-22T19:14:37.933Z,77.69
2022-10-22T19:17:07.236Z,78.29
2022-10-22T19:19:37.168Z,78.18
2022-10-22T19:22:06.531Z,78.04
2022-10-22T19:24:36.505Z,77.75
2022-10-22T19:27:06.051Z,78.09
2022-10-22T19:29:35.447Z,77.81
2022-10-22T19:32:04.839Z,77.46
2022-10-22T19:34:33.766Z,77.63
2022-10-22T19:37:03.262Z,77.67
2022-10-22T19:39:32.605Z,77.78
2022-10-22T19:42:02.732Z,78.03
2022-10-22T19:44:32.313Z,77.83
2022-10-22T19:47:01.487Z,77.64
2022-10-22T19:49:31.178Z,77.71
2022-10-22T19:52:00.472Z,77.75
2022-10-22T19:54:29.776Z,77.74
2022-10-22T19:56:58.890Z,77.65
2022-10-22T19:59:31.350Z,77.57
2022-10-22T20:02:05.459Z,78.12
2022-10-22T20:04:34.769Z,77.58
2022-10-22T20:07:04.059Z,77.90
2022-10-22T20:09:33.775Z,78.02
2022-10-22T20:12:03.184Z,77.71
2022-10-22T20:14:32.262Z,77.24
2022-10-22T20:17:01.735Z,77.47
2022-10-22T20:19:31.204Z,77.14
2022-10-22T20:24:34.596Z,77.64
2022-10-22T20:27:04.062Z,77.20
2022-10-22T20:29:33.399Z,76.75
2022-10-22T20:32:04.346Z,76.94
2022-10-22T20:34:38.537Z,76.89
2022-10-22T20:37:07.721Z,76.76
2022-10-22T20:39:37.009Z,76.44
2022-10-22T20:42:06.302Z,76.31
2022-10-22T20:44:35.734Z,75.87
2022-10-22T20:47:04.750Z,76.18
2022-10-22T20:49:37.130Z,76.12
2022-10-22T20:52:06.587Z,75.95
2022-10-22T20:54:36.311Z,76.24
2022-10-22T20:57:06.322Z,76.59
2022-10-22T20:59:36.494Z,76.65
2022-10-22T21:02:05.767Z,75.86
2022-10-22T21:04:41.594Z,76.08
2022-10-22T21:07:13.339Z,76.69
2022-10-22T21:09:42.508Z,77.01
2022-10-22T21:12:11.803Z,76.89
2022-10-22T21:14:41.127Z,77.36
2022-10-22T21:17:10.418Z,77.07
2022-10-22T21:19:39.951Z,76.73
2022-10-22T21:22:09.262Z,76.85
2022-10-22T21:24:38.604Z,77.26
2022-10-22T21:27:08.547Z,77.48
2022-10-22T21:29:37.610Z,77.62
2022-10-22T21:32:07.078Z,77.52
2022-10-22T21:34:38.862Z,77.39
2022-10-22T21:37:08.680Z,77.02
2022-10-22T21:39:41.218Z,77.10
2022-10-22T21:42:11.465Z,76.70
2022-10-22T21:44:40.663Z,76.93
2022-10-22T21:47:09.869Z,77.28
2022-10-22T21:49:39.195Z,77.10
2022-10-22T21:52:08.348Z,77.15
2022-10-22T21:54:38.485Z,77.46
2022-10-22T21:57:09.376Z,77.34
2022-10-22T21:59:39.043Z,77.09
2022-10-22T22:02:08.452Z,77.06
2022-10-22T22:04:38.129Z,77.81
2022-10-22T22:07:07.502Z,77.74
2022-10-22T22:09:37.034Z,77.77
2022-10-22T22:12:06.528Z,77.59
2022-10-22T22:14:35.662Z,77.52
2022-10-22T22:17:04.926Z,77.42
2022-10-22T22:19:34.530Z,77.52
2022-10-22T22:22:03.785Z,77.83
2022-10-22T22:24:33.029Z,77.90
2022-10-22T22:27:02.225Z,77.64
2022-10-22T22:29:31.313Z,78.15
2022-10-22T22:32:00.519Z,78.29
2022-10-22T22:34:29.679Z,78.29
2022-10-22T22:36:59.077Z,78.12
2022-10-22T22:39:28.362Z,78.23
2022-10-22T22:41:57.835Z,78.01
2022-10-22T22:44:27.348Z,78.20
2022-10-22T22:46:56.714Z,78.19
2022-10-22T22:49:26.212Z,78.09
2022-10-22T22:51:55.617Z,78.57
2022-10-22T22:54:27.495Z,78.09
2022-10-22T22:56:57.014Z,78.30
2022-10-22T22:59:26.291Z,78.57
2022-10-22T23:01:55.625Z,78.73
2022-10-22T23:04:26.207Z,78.98
2022-10-22T23:06:55.299Z,78.58
2022-10-22T23:09:24.699Z,78.23
2022-10-22T23:11:54.269Z,78.43
2022-10-22T23:14:23.717Z,78.69
2022-10-22T23:16:55.109Z,79.14
2022-10-22T23:19:25.266Z,79.16
2022-10-22T23:21:57.210Z,79.10
2022-10-22T23:24:29.821Z,79.21
2022-10-22T23:27:05.273Z,79.09
2022-10-22T23:29:37.471Z,79.22
2022-10-22T23:32:12.817Z,79.29
2022-10-22T23:34:42.662Z,79.75
2022-10-22T23:37:14.011Z,79.70
2022-10-22T23:39:43.017Z,80.04
2022-10-22T23:42:12.089Z,80.03
2022-10-22T23:44:41.521Z,79.71
2022-10-22T23:47:10.796Z,79.82
2022-10-22T23:49:39.919Z,80.12
2022-10-22T23:52:09.093Z,80.39
2022-10-22T23:54:38.616Z,80.28
2022-10-22T23:57:07.983Z,80.07
2022-10-22T23:59:37.292Z,80.06
